Detall de PIREP

Printer-friendly versionPDF version

[2011/03/27 16:50:00]
Flight IATA:CT3100
Pilot Number:026
Company ICAO:CAT
Aircraft Type:DC85/A
PAX:132
Departing Airport: LIEA
Destination Airport: LEBL
Alternate Airport:LEGE
Online: No
Route:GINOX UM601 VERSO
Flight Level:F270
No Slew and time accel
No pause
Crash detect
Detect pilot in Cockpit between each 30 and 45 minutes
16:50 Zero fuel Weight: 179337 Lbs, Fuel Weight: 21000 Lbs
16:50 VATSIM:LIEA 271620Z 19009KT 150V210 CAVOK 16/11 Q1014
16:50 VATSIM:LEBL 271630Z 22016KT 9999 FEW025 16/13 Q1010 NOSIG
16:50 VOICE CATALONIAN / INTERHUB ROUTE CT3100
16:56 Parking Brakes off
17:02 Take-off
17:02 Take off Weight: 199379 Lbs
17:02 Wind: 165º @ 009 Knots Heading: 200º
17:02 POS N40º 37´ 25´´ E008º 17´ 08´´
17:02 Gear Up: 172 Knots
17:02 Flaps:3 at 172 Knots
17:03 Flaps:2 at 156 Knots
17:03 Flaps:1 at 163 Knots
17:04 Flaps:0 at 183 Knots
17:17 Wind:180º@018 Knots Heading: 271º Ground Speed: 448 Knots Altitude 25091 ft
17:19 TOC
17:19 Fuel Weight: 14817 Lb
17:26 TOD
17:26 Fuel Weight: 13043 Lb
17:32 Wind:199º@019 Knots Heading: 275º Ground Speed: 436 Knots Altitude 21945 ft
17:47 Wind:237º@021 Knots Heading: 273º Ground Speed: 236 Knots Altitude 4041 ft
17:53 Gear Down: 221 Knots
17:53 Flaps:1 at 202 Knots
17:54 Flaps:2 at 179 Knots
17:54 Flaps:3 at 173 Knots
17:55 Flaps:4 at 155 Knots
17:55 Flaps:5 at 132 Knots
17:55 TouchDown:Rate -258 ft/min Speed: 125 Knots
17:56 VATSIM:LEBL 271730Z 23018KT 9999 FEW025 15/12 Q1010 NOSIG
17:56 Land
17:56 Wind:236º@017 Knots
17:56 Heading: 250º
17:56 Flight Duration: 00:54
17:56 Landing Weight: 188794 Lbs
17:56 POS N41º 18´ 02´´ E002º 05´ 21´´
17:59 Parking brakes on
17:59 Block to Block Duration: 01:03
17:59 Final Fuel: 9182 Lbls
17:59 Spent Fuel: 11818 Lbls
17:59 Flight Length: 309 NM
17:59 TOD Land Length: 159 NM

Exportar CSV

Powered by Drupal - Modified by Danger4k